Terminal Aerodrome Forecast
Issued by NWS

Home | Current Version | Previous Version | Text Only | Print | Product List | Glossary On
Versions: 1 2 3 4 5 6 7 8 9 10 11 12 13 14 15 16 17 18 19 20 21 22 23 24 25 26 27 28 29 30 31
000
FTUS44 KHGX 240330 AAC
TAFSGR
TAF AMD
KSGR 240330Z 2404/2424 VRB06KT P6SM VCTS FEW015CB FEW070
     FM240500 34012KT P6SM BKN050
     FM240900 32007KT P6SM SCT250
     FM241600 32012G22KT P6SM SKC=

USA.gov is the U.S. government's official web portal to all federal, state and local government web resources and services.